sensor_id;sensor_type;location;lat;lon;timestamp;P1;durP1;ratioP1;P2;durP2;ratioP2
45812;SDS011;31519;45.408;10.962;2024-03-25T00:02:03;10.18;;;3.78;;
45812;SDS011;31519;45.408;10.962;2024-03-25T00:04:30;10.38;;;3.90;;
45812;SDS011;31519;45.408;10.962;2024-03-25T00:06:58;5.38;;;3.30;;
45812;SDS011;31519;45.408;10.962;2024-03-25T00:09:25;4.88;;;3.17;;
45812;SDS011;31519;45.408;10.962;2024-03-25T00:11:52;5.13;;;3.17;;
45812;SDS011;31519;45.408;10.962;2024-03-25T00:14:21;12.38;;;5.75;;
45812;SDS011;31519;45.408;10.962;2024-03-25T00:16:49;7.13;;;3.30;;
45812;SDS011;31519;45.408;10.962;2024-03-25T00:19:17;10.32;;;3.22;;
45812;SDS011;31519;45.408;10.962;2024-03-25T00:21:45;8.27;;;3.15;;
45812;SDS011;31519;45.408;10.962;2024-03-25T00:24:11;14.88;;;2.90;;
45812;SDS011;31519;45.408;10.962;2024-03-25T00:26:39;4.72;;;3.05;;
45812;SDS011;31519;45.408;10.962;2024-03-25T00:29:06;6.10;;;3.10;;
45812;SDS011;31519;45.408;10.962;2024-03-25T00:31:33;5.38;;;2.63;;
45812;SDS011;31519;45.408;10.962;2024-03-25T00:34:00;4.43;;;3.00;;
45812;SDS011;31519;45.408;10.962;2024-03-25T00:36:27;5.45;;;2.75;;
45812;SDS011;31519;45.408;10.962;2024-03-25T00:38:54;5.90;;;3.10;;
45812;SDS011;31519;45.408;10.962;2024-03-25T00:41:22;5.72;;;2.85;;
45812;SDS011;31519;45.408;10.962;2024-03-25T00:43:49;8.55;;;3.30;;
45812;SDS011;31519;45.408;10.962;2024-03-25T00:46:16;7.63;;;3.65;;
45812;SDS011;31519;45.408;10.962;2024-03-25T00:48:43;8.85;;;3.80;;
45812;SDS011;31519;45.408;10.962;2024-03-25T00:51:11;8.70;;;4.35;;
45812;SDS011;31519;45.408;10.962;2024-03-25T00:53:38;9.60;;;4.25;;
45812;SDS011;31519;45.408;10.962;2024-03-25T00:56:05;10.57;;;3.70;;
45812;SDS011;31519;45.408;10.962;2024-03-25T00:58:32;11.38;;;3.83;;
45812;SDS011;31519;45.408;10.962;2024-03-25T01:00:59;8.05;;;3.97;;
45812;SDS011;31519;45.408;10.962;2024-03-25T01:03:26;6.75;;;3.50;;
45812;SDS011;31519;45.408;10.962;2024-03-25T01:05:54;8.45;;;3.35;;
45812;SDS011;31519;45.408;10.962;2024-03-25T01:08:21;4.20;;;2.75;;
45812;SDS011;31519;45.408;10.962;2024-03-25T01:10:48;3.67;;;2.80;;
45812;SDS011;31519;45.408;10.962;2024-03-25T01:13:15;3.88;;;2.72;;
45812;SDS011;31519;45.408;10.962;2024-03-25T01:15:42;3.95;;;2.50;;
45812;SDS011;31519;45.408;10.962;2024-03-25T01:18:09;5.93;;;2.80;;
45812;SDS011;31519;45.408;10.962;2024-03-25T01:20:37;5.18;;;2.88;;
45812;SDS011;31519;45.408;10.962;2024-03-25T01:23:04;4.07;;;2.50;;
45812;SDS011;31519;45.408;10.962;2024-03-25T01:25:31;6.70;;;2.65;;
45812;SDS011;31519;45.408;10.962;2024-03-25T01:27:58;4.40;;;2.45;;
45812;SDS011;31519;45.408;10.962;2024-03-25T01:30:26;5.85;;;2.70;;
45812;SDS011;31519;45.408;10.962;2024-03-25T01:32:54;10.38;;;2.60;;
45812;SDS011;31519;45.408;10.962;2024-03-25T01:35:21;4.50;;;1.83;;
45812;SDS011;31519;45.408;10.962;2024-03-25T01:37:48;4.78;;;2.95;;
45812;SDS011;31519;45.408;10.962;2024-03-25T01:40:16;10.90;;;2.42;;
45812;SDS011;31519;45.408;10.962;2024-03-25T01:42:43;7.38;;;2.45;;
45812;SDS011;31519;45.408;10.962;2024-03-25T01:45:12;6.72;;;2.95;;
45812;SDS011;31519;45.408;10.962;2024-03-25T01:47:39;5.78;;;2.63;;
45812;SDS011;31519;45.408;10.962;2024-03-25T01:50:06;4.03;;;2.55;;
45812;SDS011;31519;45.408;10.962;2024-03-25T01:52:34;4.68;;;2.72;;
45812;SDS011;31519;45.408;10.962;2024-03-25T01:55:01;3.97;;;2.10;;
45812;SDS011;31519;45.408;10.962;2024-03-25T01:57:30;4.50;;;2.33;;
45812;SDS011;31519;45.408;10.962;2024-03-25T01:59:58;3.65;;;2.30;;
45812;SDS011;31519;45.408;10.962;2024-03-25T02:02:27;3.33;;;2.30;;
45812;SDS011;31519;45.408;10.962;2024-03-25T02:04:55;4.22;;;2.50;;
45812;SDS011;31519;45.408;10.962;2024-03-25T02:07:22;6.28;;;2.70;;
45812;SDS011;31519;45.408;10.962;2024-03-25T02:09:52;6.40;;;2.08;;
45812;SDS011;31519;45.408;10.962;2024-03-25T02:12:20;6.82;;;2.60;;
45812;SDS011;31519;45.408;10.962;2024-03-25T02:14:48;4.13;;;2.20;;
45812;SDS011;31519;45.408;10.962;2024-03-25T02:17:16;3.85;;;2.30;;
45812;SDS011;31519;45.408;10.962;2024-03-25T02:19:43;6.88;;;2.58;;
45812;SDS011;31519;45.408;10.962;2024-03-25T02:22:10;6.80;;;1.98;;
45812;SDS011;31519;45.408;10.962;2024-03-25T02:24:38;3.08;;;2.50;;
45812;SDS011;31519;45.408;10.962;2024-03-25T02:27:06;6.47;;;2.50;;
45812;SDS011;31519;45.408;10.962;2024-03-25T02:29:35;5.68;;;2.10;;
45812;SDS011;31519;45.408;10.962;2024-03-25T02:32:02;2.42;;;2.05;;
45812;SDS011;31519;45.408;10.962;2024-03-25T02:34:29;4.00;;;2.10;;
45812;SDS011;31519;45.408;10.962;2024-03-25T02:36:56;2.58;;;1.80;;
45812;SDS011;31519;45.408;10.962;2024-03-25T02:39:24;3.40;;;1.80;;
45812;SDS011;31519;45.408;10.962;2024-03-25T02:41:51;4.90;;;2.10;;
45812;SDS011;31519;45.408;10.962;2024-03-25T02:44:19;4.00;;;2.20;;
45812;SDS011;31519;45.408;10.962;2024-03-25T02:46:46;2.83;;;1.80;;
45812;SDS011;31519;45.408;10.962;2024-03-25T02:49:14;10.88;;;2.83;;
45812;SDS011;31519;45.408;10.962;2024-03-25T02:51:41;4.45;;;2.20;;
45812;SDS011;31519;45.408;10.962;2024-03-25T02:54:09;3.10;;;1.92;;
45812;SDS011;31519;45.408;10.962;2024-03-25T02:56:36;5.63;;;2.20;;
45812;SDS011;31519;45.408;10.962;2024-03-25T02:59:03;2.83;;;2.00;;
45812;SDS011;31519;45.408;10.962;2024-03-25T03:01:30;3.25;;;2.05;;
45812;SDS011;31519;45.408;10.962;2024-03-25T03:03:58;4.75;;;2.65;;
45812;SDS011;31519;45.408;10.962;2024-03-25T03:06:25;5.00;;;2.67;;
45812;SDS011;31519;45.408;10.962;2024-03-25T03:08:52;2.95;;;2.10;;
45812;SDS011;31519;45.408;10.962;2024-03-25T03:11:19;3.95;;;2.17;;
45812;SDS011;31519;45.408;10.962;2024-03-25T03:13:46;3.85;;;1.77;;
45812;SDS011;31519;45.408;10.962;2024-03-25T03:16:13;4.18;;;1.88;;
45812;SDS011;31519;45.408;10.962;2024-03-25T03:18:41;8.90;;;3.03;;
45812;SDS011;31519;45.408;10.962;2024-03-25T03:21:08;2.03;;;1.73;;
45812;SDS011;31519;45.408;10.962;2024-03-25T03:23:35;3.40;;;1.75;;
45812;SDS011;31519;45.408;10.962;2024-03-25T03:26:02;4.00;;;1.77;;
45812;SDS011;31519;45.408;10.962;2024-03-25T03:28:30;3.55;;;1.48;;
45812;SDS011;31519;45.408;10.962;2024-03-25T03:30:56;6.55;;;1.80;;
45812;SDS011;31519;45.408;10.962;2024-03-25T03:33:24;5.57;;;1.90;;
45812;SDS011;31519;45.408;10.962;2024-03-25T03:35:51;3.55;;;1.70;;
45812;SDS011;31519;45.408;10.962;2024-03-25T03:38:19;2.97;;;1.50;;
45812;SDS011;31519;45.408;10.962;2024-03-25T03:40:57;5.55;;;1.40;;
45812;SDS011;31519;45.408;10.962;2024-03-25T03:43:24;2.63;;;1.50;;
45812;SDS011;31519;45.408;10.962;2024-03-25T03:45:52;4.55;;;1.85;;
45812;SDS011;31519;45.408;10.962;2024-03-25T03:48:19;2.00;;;1.42;;
45812;SDS011;31519;45.408;10.962;2024-03-25T03:50:46;1.77;;;1.42;;
45812;SDS011;31519;45.408;10.962;2024-03-25T03:53:13;4.07;;;1.50;;
45812;SDS011;31519;45.408;10.962;2024-03-25T03:55:40;5.07;;;1.33;;
45812;SDS011;31519;45.408;10.962;2024-03-25T03:58:08;3.17;;;1.60;;
45812;SDS011;31519;45.408;10.962;2024-03-25T04:00:35;2.35;;;1.02;;
45812;SDS011;31519;45.408;10.962;2024-03-25T04:03:02;1.35;;;1.25;;
45812;SDS011;31519;45.408;10.962;2024-03-25T04:05:30;1.40;;;1.15;;
45812;SDS011;31519;45.408;10.962;2024-03-25T04:07:57;2.28;;;1.15;;
45812;SDS011;31519;45.408;10.962;2024-03-25T04:10:26;8.02;;;2.30;;
45812;SDS011;31519;45.408;10.962;2024-03-25T04:12:54;3.92;;;1.73;;
45812;SDS011;31519;45.408;10.962;2024-03-25T04:15:22;5.43;;;1.60;;
45812;SDS011;31519;45.408;10.962;2024-03-25T04:17:49;6.93;;;1.45;;
45812;SDS011;31519;45.408;10.962;2024-03-25T04:20:16;1.63;;;1.40;;
45812;SDS011;31519;45.408;10.962;2024-03-25T04:22:44;2.85;;;1.60;;
45812;SDS011;31519;45.408;10.962;2024-03-25T04:25:12;1.67;;;1.52;;
45812;SDS011;31519;45.408;10.962;2024-03-25T04:27:43;4.15;;;1.65;;
45812;SDS011;31519;45.408;10.962;2024-03-25T04:30:11;2.58;;;1.95;;
45812;SDS011;31519;45.408;10.962;2024-03-25T04:32:38;2.92;;;1.30;;
45812;SDS011;31519;45.408;10.962;2024-03-25T04:35:09;5.50;;;1.30;;
45812;SDS011;31519;45.408;10.962;2024-03-25T04:37:36;1.40;;;1.15;;
45812;SDS011;31519;45.408;10.962;2024-03-25T04:40:03;7.90;;;2.75;;
45812;SDS011;31519;45.408;10.962;2024-03-25T04:42:30;4.38;;;1.38;;
45812;SDS011;31519;45.408;10.962;2024-03-25T04:44:57;4.95;;;1.50;;
45812;SDS011;31519;45.408;10.962;2024-03-25T04:47:25;3.05;;;1.40;;
45812;SDS011;31519;45.408;10.962;2024-03-25T04:49:52;1.70;;;1.60;;
45812;SDS011;31519;45.408;10.962;2024-03-25T04:52:19;3.95;;;1.33;;
45812;SDS011;31519;45.408;10.962;2024-03-25T04:54:49;5.38;;;1.50;;
45812;SDS011;31519;45.408;10.962;2024-03-25T04:57:17;2.85;;;1.50;;
45812;SDS011;31519;45.408;10.962;2024-03-25T04:59:45;4.20;;;2.00;;
45812;SDS011;31519;45.408;10.962;2024-03-25T05:02:12;3.47;;;1.35;;
45812;SDS011;31519;45.408;10.962;2024-03-25T05:04:40;2.10;;;1.50;;
45812;SDS011;31519;45.408;10.962;2024-03-25T05:07:07;1.52;;;1.20;;
45812;SDS011;31519;45.408;10.962;2024-03-25T05:09:34;2.28;;;1.30;;
45812;SDS011;31519;45.408;10.962;2024-03-25T05:12:02;3.33;;;1.10;;
45812;SDS011;31519;45.408;10.962;2024-03-25T05:14:29;2.88;;;1.40;;
45812;SDS011;31519;45.408;10.962;2024-03-25T05:16:56;1.67;;;1.10;;
45812;SDS011;31519;45.408;10.962;2024-03-25T05:19:23;2.38;;;1.30;;
45812;SDS011;31519;45.408;10.962;2024-03-25T05:21:51;2.03;;;1.35;;
45812;SDS011;31519;45.408;10.962;2024-03-25T05:24:18;3.47;;;1.38;;
45812;SDS011;31519;45.408;10.962;2024-03-25T05:26:46;2.80;;;1.38;;
45812;SDS011;31519;45.408;10.962;2024-03-25T05:29:13;2.00;;;1.20;;
45812;SDS011;31519;45.408;10.962;2024-03-25T05:31:54;2.97;;;1.25;;
45812;SDS011;31519;45.408;10.962;2024-03-25T05:34:23;1.80;;;1.38;;
45812;SDS011;31519;45.408;10.962;2024-03-25T05:36:51;5.15;;;1.70;;
45812;SDS011;31519;45.408;10.962;2024-03-25T05:39:18;7.18;;;1.42;;
45812;SDS011;31519;45.408;10.962;2024-03-25T05:41:47;5.90;;;1.48;;
45812;SDS011;31519;45.408;10.962;2024-03-25T05:44:14;1.30;;;1.05;;
45812;SDS011;31519;45.408;10.962;2024-03-25T05:46:42;1.80;;;1.30;;
45812;SDS011;31519;45.408;10.962;2024-03-25T05:49:09;2.60;;;1.33;;
45812;SDS011;31519;45.408;10.962;2024-03-25T05:51:36;4.82;;;1.80;;
45812;SDS011;31519;45.408;10.962;2024-03-25T05:54:03;5.28;;;1.65;;
45812;SDS011;31519;45.408;10.962;2024-03-25T05:56:30;6.68;;;1.42;;
45812;SDS011;31519;45.408;10.962;2024-03-25T05:58:58;7.25;;;1.98;;
45812;SDS011;31519;45.408;10.962;2024-03-25T06:01:25;6.53;;;1.70;;
45812;SDS011;31519;45.408;10.962;2024-03-25T06:03:53;4.85;;;1.50;;
45812;SDS011;31519;45.408;10.962;2024-03-25T06:06:20;2.47;;;1.80;;
45812;SDS011;31519;45.408;10.962;2024-03-25T06:08:47;2.80;;;1.67;;
45812;SDS011;31519;45.408;10.962;2024-03-25T06:11:17;6.68;;;1.63;;
45812;SDS011;31519;45.408;10.962;2024-03-25T06:13:47;4.88;;;1.77;;
45812;SDS011;31519;45.408;10.962;2024-03-25T06:16:15;7.13;;;1.75;;
45812;SDS011;31519;45.408;10.962;2024-03-25T06:18:42;9.15;;;2.17;;
45812;SDS011;31519;45.408;10.962;2024-03-25T06:21:09;61.55;;;16.77;;
45812;SDS011;31519;45.408;10.962;2024-03-25T06:23:36;56.92;;;15.02;;
45812;SDS011;31519;45.408;10.962;2024-03-25T06:26:03;28.27;;;8.65;;
45812;SDS011;31519;45.408;10.962;2024-03-25T06:28:30;14.27;;;3.28;;
45812;SDS011;31519;45.408;10.962;2024-03-25T06:30:58;7.15;;;3.17;;
45812;SDS011;31519;45.408;10.962;2024-03-25T06:33:43;17.88;;;2.53;;
45812;SDS011;31519;45.408;10.962;2024-03-25T06:36:29;10.95;;;3.15;;
45812;SDS011;31519;45.408;10.962;2024-03-25T06:38:56;10.43;;;2.88;;
45812;SDS011;31519;45.408;10.962;2024-03-25T06:41:23;15.35;;;4.30;;
45812;SDS011;31519;45.408;10.962;2024-03-25T06:43:50;25.80;;;3.75;;
45812;SDS011;31519;45.408;10.962;2024-03-25T06:46:18;20.95;;;3.30;;
45812;SDS011;31519;45.408;10.962;2024-03-25T06:48:45;9.88;;;2.10;;
45812;SDS011;31519;45.408;10.962;2024-03-25T06:51:12;14.77;;;1.63;;
45812;SDS011;31519;45.408;10.962;2024-03-25T06:53:39;8.40;;;1.55;;
45812;SDS011;31519;45.408;10.962;2024-03-25T06:56:06;8.05;;;1.77;;
45812;SDS011;31519;45.408;10.962;2024-03-25T06:58:34;4.00;;;1.63;;
45812;SDS011;31519;45.408;10.962;2024-03-25T07:01:05;4.18;;;1.80;;
45812;SDS011;31519;45.408;10.962;2024-03-25T07:03:33;10.93;;;2.30;;
45812;SDS011;31519;45.408;10.962;2024-03-25T07:06:02;13.77;;;2.00;;
45812;SDS011;31519;45.408;10.962;2024-03-25T07:08:29;10.88;;;1.63;;
45812;SDS011;31519;45.408;10.962;2024-03-25T07:11:00;8.95;;;2.55;;
45812;SDS011;31519;45.408;10.962;2024-03-25T07:13:27;12.38;;;3.55;;
45812;SDS011;31519;45.408;10.962;2024-03-25T07:15:54;14.35;;;2.70;;
45812;SDS011;31519;45.408;10.962;2024-03-25T07:18:22;11.02;;;2.90;;
45812;SDS011;31519;45.408;10.962;2024-03-25T07:20:50;12.77;;;2.70;;
45812;SDS011;31519;45.408;10.962;2024-03-25T07:23:17;6.60;;;3.08;;
45812;SDS011;31519;45.408;10.962;2024-03-25T07:25:44;7.65;;;2.55;;
45812;SDS011;31519;45.408;10.962;2024-03-25T07:28:11;8.55;;;2.10;;
45812;SDS011;31519;45.408;10.962;2024-03-25T07:30:39;23.60;;;2.53;;
45812;SDS011;31519;45.408;10.962;2024-03-25T07:33:06;7.78;;;2.70;;
45812;SDS011;31519;45.408;10.962;2024-03-25T07:35:34;5.22;;;2.30;;
45812;SDS011;31519;45.408;10.962;2024-03-25T07:38:02;6.47;;;2.45;;
45812;SDS011;31519;45.408;10.962;2024-03-25T07:40:30;7.72;;;1.80;;
45812;SDS011;31519;45.408;10.962;2024-03-25T07:42:57;5.57;;;1.98;;
45812;SDS011;31519;45.408;10.962;2024-03-25T07:45:25;11.57;;;2.13;;
45812;SDS011;31519;45.408;10.962;2024-03-25T07:47:52;7.55;;;1.25;;
45812;SDS011;31519;45.408;10.962;2024-03-25T07:50:20;11.48;;;2.47;;
45812;SDS011;31519;45.408;10.962;2024-03-25T07:52:48;7.45;;;3.00;;
45812;SDS011;31519;45.408;10.962;2024-03-25T07:55:15;9.20;;;2.00;;
45812;SDS011;31519;45.408;10.962;2024-03-25T07:57:42;12.50;;;2.25;;
45812;SDS011;31519;45.408;10.962;2024-03-25T08:00:09;5.80;;;1.67;;
45812;SDS011;31519;45.408;10.962;2024-03-25T08:02:40;7.45;;;2.00;;
45812;SDS011;31519;45.408;10.962;2024-03-25T08:05:07;10.55;;;2.08;;
45812;SDS011;31519;45.408;10.962;2024-03-25T08:07:35;4.72;;;1.92;;
45812;SDS011;31519;45.408;10.962;2024-03-25T08:10:02;4.53;;;2.10;;
45812;SDS011;31519;45.408;10.962;2024-03-25T08:12:30;4.35;;;2.10;;
45812;SDS011;31519;45.408;10.962;2024-03-25T08:14:58;7.80;;;1.92;;
45812;SDS011;31519;45.408;10.962;2024-03-25T08:17:25;2.30;;;1.55;;
45812;SDS011;31519;45.408;10.962;2024-03-25T08:19:52;5.22;;;1.67;;
45812;SDS011;31519;45.408;10.962;2024-03-25T08:22:19;8.57;;;1.73;;
45812;SDS011;31519;45.408;10.962;2024-03-25T08:24:46;6.25;;;2.30;;
45812;SDS011;31519;45.408;10.962;2024-03-25T08:27:13;4.18;;;2.05;;
45812;SDS011;31519;45.408;10.962;2024-03-25T08:29:42;10.07;;;2.08;;
45812;SDS011;31519;45.408;10.962;2024-03-25T08:32:09;4.20;;;2.10;;
45812;SDS011;31519;45.408;10.962;2024-03-25T08:34:37;2.40;;;1.50;;
45812;SDS011;31519;45.408;10.962;2024-03-25T08:37:04;3.97;;;2.10;;
45812;SDS011;31519;45.408;10.962;2024-03-25T08:39:31;9.68;;;2.45;;
45812;SDS011;31519;45.408;10.962;2024-03-25T08:41:58;8.10;;;2.22;;
45812;SDS011;31519;45.408;10.962;2024-03-25T08:44:25;15.48;;;3.38;;
45812;SDS011;31519;45.408;10.962;2024-03-25T08:46:52;6.97;;;2.22;;
45812;SDS011;31519;45.408;10.962;2024-03-25T08:49:19;34.80;;;3.78;;
45812;SDS011;31519;45.408;10.962;2024-03-25T08:51:47;7.82;;;2.70;;
45812;SDS011;31519;45.408;10.962;2024-03-25T08:54:14;2.83;;;2.05;;
45812;SDS011;31519;45.408;10.962;2024-03-25T08:56:41;7.18;;;2.10;;
45812;SDS011;31519;45.408;10.962;2024-03-25T08:59:08;5.97;;;2.53;;
45812;SDS011;31519;45.408;10.962;2024-03-25T09:01:36;7.28;;;2.50;;
45812;SDS011;31519;45.408;10.962;2024-03-25T09:04:03;7.65;;;2.63;;
45812;SDS011;31519;45.408;10.962;2024-03-25T09:06:30;5.13;;;2.15;;
45812;SDS011;31519;45.408;10.962;2024-03-25T09:08:58;10.13;;;2.50;;
45812;SDS011;31519;45.408;10.962;2024-03-25T09:11:43;7.00;;;2.38;;
45812;SDS011;31519;45.408;10.962;2024-03-25T09:14:10;7.65;;;3.10;;
45812;SDS011;31519;45.408;10.962;2024-03-25T09:16:38;8.88;;;2.53;;
45812;SDS011;31519;45.408;10.962;2024-03-25T09:19:05;6.60;;;2.42;;
45812;SDS011;31519;45.408;10.962;2024-03-25T09:21:33;9.82;;;2.60;;
45812;SDS011;31519;45.408;10.962;2024-03-25T09:24:00;7.65;;;2.17;;
45812;SDS011;31519;45.408;10.962;2024-03-25T09:26:27;10.25;;;3.22;;
45812;SDS011;31519;45.408;10.962;2024-03-25T09:28:54;8.02;;;2.20;;
45812;SDS011;31519;45.408;10.962;2024-03-25T09:31:21;4.53;;;2.28;;
45812;SDS011;31519;45.408;10.962;2024-03-25T09:33:49;4.85;;;2.35;;
45812;SDS011;31519;45.408;10.962;2024-03-25T09:36:15;4.20;;;1.85;;
45812;SDS011;31519;45.408;10.962;2024-03-25T09:38:43;7.35;;;2.05;;
45812;SDS011;31519;45.408;10.962;2024-03-25T09:41:10;4.57;;;1.95;;
45812;SDS011;31519;45.408;10.962;2024-03-25T09:43:47;6.75;;;4.03;;
45812;SDS011;31519;45.408;10.962;2024-03-25T09:46:16;5.35;;;2.15;;
45812;SDS011;31519;45.408;10.962;2024-03-25T09:48:44;3.90;;;2.22;;
45812;SDS011;31519;45.408;10.962;2024-03-25T09:51:11;3.90;;;2.03;;
45812;SDS011;31519;45.408;10.962;2024-03-25T09:53:38;4.65;;;2.13;;
45812;SDS011;31519;45.408;10.962;2024-03-25T09:56:05;2.60;;;1.60;;
45812;SDS011;31519;45.408;10.962;2024-03-25T09:58:32;10.00;;;2.65;;
45812;SDS011;31519;45.408;10.962;2024-03-25T10:01:00;3.40;;;2.15;;
45812;SDS011;31519;45.408;10.962;2024-03-25T10:03:27;2.50;;;1.92;;
45812;SDS011;31519;45.408;10.962;2024-03-25T10:05:55;9.30;;;2.25;;
45812;SDS011;31519;45.408;10.962;2024-03-25T10:08:22;4.30;;;2.58;;
45812;SDS011;31519;45.408;10.962;2024-03-25T10:10:49;6.70;;;2.30;;
45812;SDS011;31519;45.408;10.962;2024-03-25T10:13:18;8.00;;;3.03;;
45812;SDS011;31519;45.408;10.962;2024-03-25T10:15:49;7.20;;;2.33;;
45812;SDS011;31519;45.408;10.962;2024-03-25T10:18:16;11.05;;;2.47;;
45812;SDS011;31519;45.408;10.962;2024-03-25T10:20:48;2.67;;;1.80;;
45812;SDS011;31519;45.408;10.962;2024-03-25T10:23:15;5.38;;;2.03;;
45812;SDS011;31519;45.408;10.962;2024-03-25T10:25:51;3.80;;;2.70;;
45812;SDS011;31519;45.408;10.962;2024-03-25T10:28:19;4.18;;;2.58;;
45812;SDS011;31519;45.408;10.962;2024-03-25T10:30:46;9.93;;;2.08;;
45812;SDS011;31519;45.408;10.962;2024-03-25T10:33:13;4.13;;;1.70;;
45812;SDS011;31519;45.408;10.962;2024-03-25T10:35:41;12.07;;;2.40;;
45812;SDS011;31519;45.408;10.962;2024-03-25T10:38:18;3.60;;;1.83;;
45812;SDS011;31519;45.408;10.962;2024-03-25T10:40:46;3.40;;;1.88;;
45812;SDS011;31519;45.408;10.962;2024-03-25T10:43:18;7.53;;;2.00;;
45812;SDS011;31519;45.408;10.962;2024-03-25T10:45:47;1.77;;;1.63;;
45812;SDS011;31519;45.408;10.962;2024-03-25T10:48:35;1.50;;;1.40;;
45812;SDS011;31519;45.408;10.962;2024-03-25T10:51:06;3.05;;;1.65;;
45812;SDS011;31519;45.408;10.962;2024-03-25T10:53:37;1.83;;;1.23;;
45812;SDS011;31519;45.408;10.962;2024-03-25T10:56:05;4.97;;;1.73;;
45812;SDS011;31519;45.408;10.962;2024-03-25T10:58:33;3.83;;;1.50;;
45812;SDS011;31519;45.408;10.962;2024-03-25T11:01:01;4.60;;;2.95;;
45812;SDS011;31519;45.408;10.962;2024-03-25T11:03:29;2.90;;;1.48;;
45812;SDS011;31519;45.408;10.962;2024-03-25T11:05:57;7.28;;;1.83;;
45812;SDS011;31519;45.408;10.962;2024-03-25T11:08:30;6.07;;;2.17;;
45812;SDS011;31519;45.408;10.962;2024-03-25T11:10:58;6.80;;;2.05;;
45812;SDS011;31519;45.408;10.962;2024-03-25T11:13:26;4.10;;;2.33;;
45812;SDS011;31519;45.408;10.962;2024-03-25T11:15:56;4.07;;;2.00;;
45812;SDS011;31519;45.408;10.962;2024-03-25T11:18:25;7.38;;;1.75;;
45812;SDS011;31519;45.408;10.962;2024-03-25T11:23:35;3.13;;;2.47;;
45812;SDS011;31519;45.408;10.962;2024-03-25T11:26:05;1.88;;;1.75;;
45812;SDS011;31519;45.408;10.962;2024-03-25T11:28:32;7.32;;;2.10;;
45812;SDS011;31519;45.408;10.962;2024-03-25T11:31:02;3.60;;;1.73;;
45812;SDS011;31519;45.408;10.962;2024-03-25T11:33:36;5.90;;;2.03;;
45812;SDS011;31519;45.408;10.962;2024-03-25T11:36:05;11.10;;;2.80;;
45812;SDS011;31519;45.408;10.962;2024-03-25T11:38:33;12.43;;;2.88;;
45812;SDS011;31519;45.408;10.962;2024-03-25T11:41:00;3.97;;;1.60;;
45812;SDS011;31519;45.408;10.962;2024-03-25T11:43:28;7.00;;;2.40;;
45812;SDS011;31519;45.408;10.962;2024-03-25T11:45:56;4.15;;;2.22;;
45812;SDS011;31519;45.408;10.962;2024-03-25T11:48:22;4.75;;;2.30;;
45812;SDS011;31519;45.408;10.962;2024-03-25T11:50:50;5.63;;;4.40;;
45812;SDS011;31519;45.408;10.962;2024-03-25T11:53:17;4.20;;;2.42;;
45812;SDS011;31519;45.408;10.962;2024-03-25T11:55:47;6.25;;;2.60;;
45812;SDS011;31519;45.408;10.962;2024-03-25T11:58:15;5.05;;;2.38;;
45812;SDS011;31519;45.408;10.962;2024-03-25T12:00:44;3.53;;;2.00;;
45812;SDS011;31519;45.408;10.962;2024-03-25T12:03:18;7.30;;;2.30;;
45812;SDS011;31519;45.408;10.962;2024-03-25T12:05:48;6.85;;;2.35;;
45812;SDS011;31519;45.408;10.962;2024-03-25T12:08:15;2.00;;;1.80;;
45812;SDS011;31519;45.408;10.962;2024-03-25T12:10:42;6.63;;;2.22;;
45812;SDS011;31519;45.408;10.962;2024-03-25T12:13:27;3.38;;;2.00;;
45812;SDS011;31519;45.408;10.962;2024-03-25T12:15:55;3.50;;;2.33;;
45812;SDS011;31519;45.408;10.962;2024-03-25T12:18:22;3.97;;;3.00;;
45812;SDS011;31519;45.408;10.962;2024-03-25T12:20:49;2.85;;;2.13;;
45812;SDS011;31519;45.408;10.962;2024-03-25T12:23:19;3.88;;;1.67;;
45812;SDS011;31519;45.408;10.962;2024-03-25T12:25:49;2.25;;;1.98;;
45812;SDS011;31519;45.408;10.962;2024-03-25T12:28:17;4.57;;;1.67;;
45812;SDS011;31519;45.408;10.962;2024-03-25T12:30:51;1.73;;;1.63;;
45812;SDS011;31519;45.408;10.962;2024-03-25T12:33:19;6.22;;;2.40;;
45812;SDS011;31519;45.408;10.962;2024-03-25T12:35:48;2.53;;;1.63;;
45812;SDS011;31519;45.408;10.962;2024-03-25T12:38:25;10.63;;;2.95;;
45812;SDS011;31519;45.408;10.962;2024-03-25T12:40:53;3.10;;;1.50;;
45812;SDS011;31519;45.408;10.962;2024-03-25T12:43:34;5.85;;;1.88;;
45812;SDS011;31519;45.408;10.962;2024-03-25T12:46:02;7.38;;;2.40;;
45812;SDS011;31519;45.408;10.962;2024-03-25T12:48:32;4.60;;;2.30;;
45812;SDS011;31519;45.408;10.962;2024-03-25T12:51:00;4.32;;;2.42;;
45812;SDS011;31519;45.408;10.962;2024-03-25T12:53:27;6.47;;;2.55;;
45812;SDS011;31519;45.408;10.962;2024-03-25T12:55:54;5.47;;;2.40;;
45812;SDS011;31519;45.408;10.962;2024-03-25T12:58:21;2.78;;;2.28;;
45812;SDS011;31519;45.408;10.962;2024-03-25T13:00:49;4.78;;;1.85;;
45812;SDS011;31519;45.408;10.962;2024-03-25T13:03:16;3.47;;;2.50;;
45812;SDS011;31519;45.408;10.962;2024-03-25T13:05:43;10.60;;;3.00;;
45812;SDS011;31519;45.408;10.962;2024-03-25T13:08:10;10.23;;;1.85;;
45812;SDS011;31519;45.408;10.962;2024-03-25T13:10:37;2.10;;;1.77;;
45812;SDS011;31519;45.408;10.962;2024-03-25T13:13:05;2.42;;;1.80;;
45812;SDS011;31519;45.408;10.962;2024-03-25T13:15:32;11.50;;;2.10;;
45812;SDS011;31519;45.408;10.962;2024-03-25T13:17:59;4.18;;;2.17;;
45812;SDS011;31519;45.408;10.962;2024-03-25T13:20:26;10.55;;;2.65;;
45812;SDS011;31519;45.408;10.962;2024-03-25T13:22:54;3.95;;;2.40;;
45812;SDS011;31519;45.408;10.962;2024-03-25T13:25:26;3.67;;;2.60;;
45812;SDS011;31519;45.408;10.962;2024-03-25T14:03:30;3.97;;;1.50;;
45812;SDS011;31519;45.408;10.962;2024-03-25T14:28:57;6.55;;;2.00;;
45812;SDS011;31519;45.408;10.962;2024-03-25T14:38:17;6.72;;;2.60;;
45812;SDS011;31519;45.408;10.962;2024-03-25T16:10:15;5.45;;;2.45;;
45812;SDS011;31519;45.408;10.962;2024-03-25T16:20:02;5.63;;;2.90;;
45812;SDS011;31519;45.408;10.962;2024-03-25T16:58:01;5.28;;;2.15;;
45812;SDS011;31519;45.408;10.962;2024-03-25T18:34:42;8.68;;;4.75;;
45812;SDS011;31519;45.408;10.962;2024-03-25T20:52:28;8.27;;;3.47;;
45812;SDS011;31519;45.408;10.962;2024-03-25T21:40:55;8.65;;;2.28;;
45812;SDS011;31519;45.408;10.962;2024-03-25T23:14:19;7.00;;;1.92;;
